sensor_id;sensor_type;location;lat;lon;timestamp;P1;durP1;ratioP1;P2;durP2;ratioP2
18320;SDS011;54904;54.350;18.664;2022-12-16T00:01:02;37.63;;;15.47;;
18320;SDS011;54904;54.350;18.664;2022-12-16T00:03:31;38.87;;;15.70;;
18320;SDS011;54904;54.350;18.664;2022-12-16T00:05:58;37.23;;;15.87;;
18320;SDS011;54904;54.350;18.664;2022-12-16T00:08:28;38.83;;;15.10;;
18320;SDS011;54904;54.350;18.664;2022-12-16T00:10:57;34.53;;;14.60;;
18320;SDS011;54904;54.350;18.664;2022-12-16T00:13:28;44.07;;;17.53;;
18320;SDS011;54904;54.350;18.664;2022-12-16T00:15:56;42.90;;;17.00;;
18320;SDS011;54904;54.350;18.664;2022-12-16T00:18:23;43.73;;;17.53;;
18320;SDS011;54904;54.350;18.664;2022-12-16T00:20:52;34.87;;;15.47;;
18320;SDS011;54904;54.350;18.664;2022-12-16T00:23:20;37.37;;;14.73;;
18320;SDS011;54904;54.350;18.664;2022-12-16T00:25:48;47.27;;;18.90;;
18320;SDS011;54904;54.350;18.664;2022-12-16T00:28:15;40.40;;;16.97;;
18320;SDS011;54904;54.350;18.664;2022-12-16T00:30:47;48.97;;;18.37;;
18320;SDS011;54904;54.350;18.664;2022-12-16T00:33:14;46.10;;;17.40;;
18320;SDS011;54904;54.350;18.664;2022-12-16T00:35:43;40.57;;;16.83;;
18320;SDS011;54904;54.350;18.664;2022-12-16T00:38:12;39.00;;;15.83;;
18320;SDS011;54904;54.350;18.664;2022-12-16T00:40:39;47.47;;;18.53;;
18320;SDS011;54904;54.350;18.664;2022-12-16T00:43:06;51.00;;;19.87;;
18320;SDS011;54904;54.350;18.664;2022-12-16T00:45:33;40.07;;;16.03;;
18320;SDS011;54904;54.350;18.664;2022-12-16T00:48:01;46.17;;;18.20;;
18320;SDS011;54904;54.350;18.664;2022-12-16T00:50:28;42.80;;;17.40;;
18320;SDS011;54904;54.350;18.664;2022-12-16T00:52:55;36.50;;;15.20;;
18320;SDS011;54904;54.350;18.664;2022-12-16T00:55:23;32.30;;;13.97;;
18320;SDS011;54904;54.350;18.664;2022-12-16T00:57:50;28.83;;;13.47;;
18320;SDS011;54904;54.350;18.664;2022-12-16T01:00:18;33.70;;;14.40;;
18320;SDS011;54904;54.350;18.664;2022-12-16T01:02:47;43.80;;;16.63;;
18320;SDS011;54904;54.350;18.664;2022-12-16T01:05:16;41.67;;;15.53;;
18320;SDS011;54904;54.350;18.664;2022-12-16T01:07:46;39.37;;;17.03;;
18320;SDS011;54904;54.350;18.664;2022-12-16T01:10:16;43.87;;;16.87;;
18320;SDS011;54904;54.350;18.664;2022-12-16T01:12:45;39.30;;;16.17;;
18320;SDS011;54904;54.350;18.664;2022-12-16T01:15:12;38.00;;;15.23;;
18320;SDS011;54904;54.350;18.664;2022-12-16T01:17:39;36.33;;;14.57;;
18320;SDS011;54904;54.350;18.664;2022-12-16T01:20:07;33.63;;;14.90;;
18320;SDS011;54904;54.350;18.664;2022-12-16T01:22:35;34.03;;;14.00;;
18320;SDS011;54904;54.350;18.664;2022-12-16T01:25:03;33.70;;;13.80;;
18320;SDS011;54904;54.350;18.664;2022-12-16T01:27:30;29.90;;;12.53;;
18320;SDS011;54904;54.350;18.664;2022-12-16T01:29:59;37.93;;;15.60;;
18320;SDS011;54904;54.350;18.664;2022-12-16T01:32:27;37.23;;;14.97;;
18320;SDS011;54904;54.350;18.664;2022-12-16T01:34:54;37.43;;;14.30;;
18320;SDS011;54904;54.350;18.664;2022-12-16T01:37:21;40.80;;;15.63;;
18320;SDS011;54904;54.350;18.664;2022-12-16T01:39:49;34.43;;;13.80;;
18320;SDS011;54904;54.350;18.664;2022-12-16T01:42:17;38.97;;;15.43;;
18320;SDS011;54904;54.350;18.664;2022-12-16T01:44:48;33.57;;;13.73;;
18320;SDS011;54904;54.350;18.664;2022-12-16T01:47:18;33.37;;;14.20;;
18320;SDS011;54904;54.350;18.664;2022-12-16T01:49:51;39.30;;;16.20;;
18320;SDS011;54904;54.350;18.664;2022-12-16T01:52:24;33.00;;;14.37;;
18320;SDS011;54904;54.350;18.664;2022-12-16T01:54:57;30.83;;;12.47;;
18320;SDS011;54904;54.350;18.664;2022-12-16T01:57:28;28.40;;;11.90;;
18320;SDS011;54904;54.350;18.664;2022-12-16T01:59:58;29.27;;;12.37;;
18320;SDS011;54904;54.350;18.664;2022-12-16T02:02:39;35.13;;;13.53;;
18320;SDS011;54904;54.350;18.664;2022-12-16T02:05:08;33.10;;;13.47;;
18320;SDS011;54904;54.350;18.664;2022-12-16T02:07:53;37.53;;;14.47;;
18320;SDS011;54904;54.350;18.664;2022-12-16T02:10:26;38.43;;;15.23;;
18320;SDS011;54904;54.350;18.664;2022-12-16T02:13:05;28.67;;;12.23;;
18320;SDS011;54904;54.350;18.664;2022-12-16T02:15:43;33.80;;;13.37;;
18320;SDS011;54904;54.350;18.664;2022-12-16T02:18:21;40.87;;;16.03;;
18320;SDS011;54904;54.350;18.664;2022-12-16T02:21:05;37.70;;;15.07;;
18320;SDS011;54904;54.350;18.664;2022-12-16T02:23:57;43.27;;;16.87;;
18320;SDS011;54904;54.350;18.664;2022-12-16T02:27:09;48.13;;;17.83;;
18320;SDS011;54904;54.350;18.664;2022-12-16T02:30:04;37.87;;;14.63;;
18320;SDS011;54904;54.350;18.664;2022-12-16T02:32:51;38.00;;;14.60;;
18320;SDS011;54904;54.350;18.664;2022-12-16T02:35:27;33.13;;;13.97;;
18320;SDS011;54904;54.350;18.664;2022-12-16T02:38:00;47.03;;;17.97;;
18320;SDS011;54904;54.350;18.664;2022-12-16T02:40:40;42.27;;;16.17;;
18320;SDS011;54904;54.350;18.664;2022-12-16T02:43:12;33.67;;;13.80;;
18320;SDS011;54904;54.350;18.664;2022-12-16T02:45:44;37.13;;;14.73;;
18320;SDS011;54904;54.350;18.664;2022-12-16T02:48:13;34.73;;;13.60;;
18320;SDS011;54904;54.350;18.664;2022-12-16T02:50:41;34.50;;;13.10;;
18320;SDS011;54904;54.350;18.664;2022-12-16T02:53:12;26.40;;;11.30;;
18320;SDS011;54904;54.350;18.664;2022-12-16T02:55:42;33.40;;;12.97;;
18320;SDS011;54904;54.350;18.664;2022-12-16T02:58:18;28.13;;;12.10;;
18320;SDS011;54904;54.350;18.664;2022-12-16T03:00:55;32.40;;;13.30;;
18320;SDS011;54904;54.350;18.664;2022-12-16T03:03:33;38.90;;;14.80;;
18320;SDS011;54904;54.350;18.664;2022-12-16T03:06:05;31.70;;;13.37;;
18320;SDS011;54904;54.350;18.664;2022-12-16T03:08:36;35.83;;;14.63;;
18320;SDS011;54904;54.350;18.664;2022-12-16T03:11:08;30.83;;;12.20;;
18320;SDS011;54904;54.350;18.664;2022-12-16T03:13:36;42.10;;;17.00;;
18320;SDS011;54904;54.350;18.664;2022-12-16T03:16:08;42.73;;;17.33;;
18320;SDS011;54904;54.350;18.664;2022-12-16T03:18:40;37.67;;;15.70;;
18320;SDS011;54904;54.350;18.664;2022-12-16T03:21:10;33.27;;;13.47;;
18320;SDS011;54904;54.350;18.664;2022-12-16T03:23:41;34.60;;;13.90;;
18320;SDS011;54904;54.350;18.664;2022-12-16T03:26:18;31.80;;;13.13;;
18320;SDS011;54904;54.350;18.664;2022-12-16T03:28:49;40.80;;;15.67;;
18320;SDS011;54904;54.350;18.664;2022-12-16T03:31:24;34.70;;;14.57;;
18320;SDS011;54904;54.350;18.664;2022-12-16T03:33:59;41.27;;;17.00;;
18320;SDS011;54904;54.350;18.664;2022-12-16T03:36:35;29.97;;;12.77;;
18320;SDS011;54904;54.350;18.664;2022-12-16T03:39:04;45.60;;;18.13;;
18320;SDS011;54904;54.350;18.664;2022-12-16T03:41:32;50.20;;;18.90;;
18320;SDS011;54904;54.350;18.664;2022-12-16T03:44:01;53.67;;;20.90;;
18320;SDS011;54904;54.350;18.664;2022-12-16T03:46:28;51.47;;;19.83;;
18320;SDS011;54904;54.350;18.664;2022-12-16T03:48:55;48.90;;;19.13;;
18320;SDS011;54904;54.350;18.664;2022-12-16T03:51:24;48.57;;;18.63;;
18320;SDS011;54904;54.350;18.664;2022-12-16T03:53:53;48.53;;;19.43;;
18320;SDS011;54904;54.350;18.664;2022-12-16T03:56:20;41.57;;;17.90;;
18320;SDS011;54904;54.350;18.664;2022-12-16T03:58:47;36.87;;;15.87;;
18320;SDS011;54904;54.350;18.664;2022-12-16T04:01:14;41.63;;;16.00;;
18320;SDS011;54904;54.350;18.664;2022-12-16T04:03:41;36.37;;;14.90;;
18320;SDS011;54904;54.350;18.664;2022-12-16T04:06:08;32.93;;;12.30;;
18320;SDS011;54904;54.350;18.664;2022-12-16T04:08:36;33.70;;;13.50;;
18320;SDS011;54904;54.350;18.664;2022-12-16T04:11:04;33.63;;;13.20;;
18320;SDS011;54904;54.350;18.664;2022-12-16T04:13:48;40.97;;;14.60;;
18320;SDS011;54904;54.350;18.664;2022-12-16T04:16:33;45.23;;;17.87;;
18320;SDS011;54904;54.350;18.664;2022-12-16T04:19:19;50.07;;;18.77;;
18320;SDS011;54904;54.350;18.664;2022-12-16T04:22:08;37.70;;;14.77;;
18320;SDS011;54904;54.350;18.664;2022-12-16T04:24:59;56.77;;;20.20;;
18320;SDS011;54904;54.350;18.664;2022-12-16T04:27:28;48.97;;;19.33;;
18320;SDS011;54904;54.350;18.664;2022-12-16T04:29:55;47.20;;;17.47;;
18320;SDS011;54904;54.350;18.664;2022-12-16T04:32:40;47.37;;;17.93;;
18320;SDS011;54904;54.350;18.664;2022-12-16T04:35:24;47.47;;;18.03;;
18320;SDS011;54904;54.350;18.664;2022-12-16T04:38:11;49.13;;;18.20;;
18320;SDS011;54904;54.350;18.664;2022-12-16T04:40:57;60.73;;;22.17;;
18320;SDS011;54904;54.350;18.664;2022-12-16T04:43:41;70.80;;;25.10;;
18320;SDS011;54904;54.350;18.664;2022-12-16T04:46:26;70.33;;;25.77;;
18320;SDS011;54904;54.350;18.664;2022-12-16T04:49:11;74.60;;;25.33;;
18320;SDS011;54904;54.350;18.664;2022-12-16T04:51:56;58.43;;;22.43;;
18320;SDS011;54904;54.350;18.664;2022-12-16T04:54:40;69.90;;;24.63;;
18320;SDS011;54904;54.350;18.664;2022-12-16T04:57:26;56.60;;;20.30;;
18320;SDS011;54904;54.350;18.664;2022-12-16T05:00:11;63.20;;;21.67;;
18320;SDS011;54904;54.350;18.664;2022-12-16T05:02:56;67.67;;;23.77;;
18320;SDS011;54904;54.350;18.664;2022-12-16T05:05:40;62.20;;;21.50;;
18320;SDS011;54904;54.350;18.664;2022-12-16T05:08:28;54.80;;;19.80;;
18320;SDS011;54904;54.350;18.664;2022-12-16T05:11:15;57.13;;;20.10;;
18320;SDS011;54904;54.350;18.664;2022-12-16T05:14:01;63.33;;;22.50;;
18320;SDS011;54904;54.350;18.664;2022-12-16T05:16:45;42.87;;;17.23;;
18320;SDS011;54904;54.350;18.664;2022-12-16T05:19:30;61.20;;;20.60;;
18320;SDS011;54904;54.350;18.664;2022-12-16T05:22:15;62.87;;;23.37;;
18320;SDS011;54904;54.350;18.664;2022-12-16T05:25:00;60.17;;;21.20;;
18320;SDS011;54904;54.350;18.664;2022-12-16T05:27:44;59.63;;;20.17;;
18320;SDS011;54904;54.350;18.664;2022-12-16T05:30:34;52.07;;;19.73;;
18320;SDS011;54904;54.350;18.664;2022-12-16T05:33:18;41.87;;;16.03;;
18320;SDS011;54904;54.350;18.664;2022-12-16T05:36:03;42.10;;;16.40;;
18320;SDS011;54904;54.350;18.664;2022-12-16T05:38:50;57.33;;;20.47;;
18320;SDS011;54904;54.350;18.664;2022-12-16T05:41:35;54.47;;;19.70;;
18320;SDS011;54904;54.350;18.664;2022-12-16T05:44:19;46.50;;;16.90;;
18320;SDS011;54904;54.350;18.664;2022-12-16T05:47:05;36.83;;;14.30;;
18320;SDS011;54904;54.350;18.664;2022-12-16T05:49:50;49.67;;;17.30;;
18320;SDS011;54904;54.350;18.664;2022-12-16T05:52:34;44.53;;;15.83;;
18320;SDS011;54904;54.350;18.664;2022-12-16T05:55:19;51.83;;;18.87;;
18320;SDS011;54904;54.350;18.664;2022-12-16T05:58:03;56.93;;;19.87;;
18320;SDS011;54904;54.350;18.664;2022-12-16T06:00:48;67.17;;;23.13;;
18320;SDS011;54904;54.350;18.664;2022-12-16T06:03:39;70.33;;;25.57;;
18320;SDS011;54904;54.350;18.664;2022-12-16T06:06:24;53.43;;;19.20;;
18320;SDS011;54904;54.350;18.664;2022-12-16T06:09:08;46.10;;;17.53;;
18320;SDS011;54904;54.350;18.664;2022-12-16T06:11:52;66.90;;;22.80;;
18320;SDS011;54904;54.350;18.664;2022-12-16T06:14:37;46.30;;;18.23;;
18320;SDS011;54904;54.350;18.664;2022-12-16T06:17:22;59.47;;;20.60;;
18320;SDS011;54904;54.350;18.664;2022-12-16T06:20:11;60.53;;;21.13;;
18320;SDS011;54904;54.350;18.664;2022-12-16T06:22:55;56.47;;;19.97;;
18320;SDS011;54904;54.350;18.664;2022-12-16T06:25:40;49.83;;;17.30;;
18320;SDS011;54904;54.350;18.664;2022-12-16T06:28:25;43.87;;;16.40;;
18320;SDS011;54904;54.350;18.664;2022-12-16T06:31:10;51.93;;;19.50;;
18320;SDS011;54904;54.350;18.664;2022-12-16T06:33:54;67.27;;;22.77;;
18320;SDS011;54904;54.350;18.664;2022-12-16T06:36:40;63.57;;;22.60;;
18320;SDS011;54904;54.350;18.664;2022-12-16T06:39:24;61.57;;;22.77;;
18320;SDS011;54904;54.350;18.664;2022-12-16T06:42:12;59.90;;;21.13;;
18320;SDS011;54904;54.350;18.664;2022-12-16T06:44:56;62.17;;;20.70;;
18320;SDS011;54904;54.350;18.664;2022-12-16T06:47:41;58.57;;;21.03;;
18320;SDS011;54904;54.350;18.664;2022-12-16T06:50:26;44.73;;;16.43;;
18320;SDS011;54904;54.350;18.664;2022-12-16T06:53:12;45.33;;;17.37;;
18320;SDS011;54904;54.350;18.664;2022-12-16T06:55:57;48.87;;;18.37;;
18320;SDS011;54904;54.350;18.664;2022-12-16T06:58:41;64.43;;;21.80;;
18320;SDS011;54904;54.350;18.664;2022-12-16T07:01:26;52.63;;;19.43;;
18320;SDS011;54904;54.350;18.664;2022-12-16T07:04:13;51.93;;;18.57;;
18320;SDS011;54904;54.350;18.664;2022-12-16T07:06:58;51.20;;;18.97;;
18320;SDS011;54904;54.350;18.664;2022-12-16T07:09:58;62.63;;;22.07;;
18320;SDS011;54904;54.350;18.664;2022-12-16T07:12:43;53.93;;;20.23;;
18320;SDS011;54904;54.350;18.664;2022-12-16T07:15:30;69.37;;;24.80;;
18320;SDS011;54904;54.350;18.664;2022-12-16T07:18:15;58.17;;;20.10;;
18320;SDS011;54904;54.350;18.664;2022-12-16T07:21:00;47.47;;;18.20;;
18320;SDS011;54904;54.350;18.664;2022-12-16T07:23:44;47.30;;;16.80;;
18320;SDS011;54904;54.350;18.664;2022-12-16T07:26:27;48.00;;;17.37;;
18320;SDS011;54904;54.350;18.664;2022-12-16T07:29:12;41.43;;;16.13;;
18320;SDS011;54904;54.350;18.664;2022-12-16T07:31:56;51.97;;;19.23;;
18320;SDS011;54904;54.350;18.664;2022-12-16T07:34:41;40.80;;;15.47;;
18320;SDS011;54904;54.350;18.664;2022-12-16T07:37:25;41.90;;;15.63;;
18320;SDS011;54904;54.350;18.664;2022-12-16T07:40:10;44.10;;;16.37;;
18320;SDS011;54904;54.350;18.664;2022-12-16T07:42:56;33.97;;;13.53;;
18320;SDS011;54904;54.350;18.664;2022-12-16T07:45:40;39.80;;;15.13;;
18320;SDS011;54904;54.350;18.664;2022-12-16T07:48:25;37.50;;;15.00;;
18320;SDS011;54904;54.350;18.664;2022-12-16T07:51:09;36.77;;;14.13;;
18320;SDS011;54904;54.350;18.664;2022-12-16T07:53:53;56.63;;;20.63;;
18320;SDS011;54904;54.350;18.664;2022-12-16T07:56:38;42.97;;;16.83;;
18320;SDS011;54904;54.350;18.664;2022-12-16T07:59:24;49.83;;;18.07;;
18320;SDS011;54904;54.350;18.664;2022-12-16T08:02:09;64.77;;;21.97;;
18320;SDS011;54904;54.350;18.664;2022-12-16T08:04:54;60.27;;;22.93;;
18320;SDS011;54904;54.350;18.664;2022-12-16T08:07:38;66.03;;;25.90;;
18320;SDS011;54904;54.350;18.664;2022-12-16T08:10:23;66.90;;;23.87;;
18320;SDS011;54904;54.350;18.664;2022-12-16T08:13:07;56.83;;;21.47;;
18320;SDS011;54904;54.350;18.664;2022-12-16T08:15:53;49.77;;;19.50;;
18320;SDS011;54904;54.350;18.664;2022-12-16T08:18:38;41.97;;;17.17;;
18320;SDS011;54904;54.350;18.664;2022-12-16T08:21:22;42.63;;;17.33;;
18320;SDS011;54904;54.350;18.664;2022-12-16T08:24:07;46.47;;;17.83;;
18320;SDS011;54904;54.350;18.664;2022-12-16T08:26:51;72.97;;;27.57;;
18320;SDS011;54904;54.350;18.664;2022-12-16T08:29:36;79.23;;;30.30;;
18320;SDS011;54904;54.350;18.664;2022-12-16T08:32:22;84.67;;;30.07;;
18320;SDS011;54904;54.350;18.664;2022-12-16T08:35:06;78.30;;;28.53;;
18320;SDS011;54904;54.350;18.664;2022-12-16T08:37:53;78.27;;;27.10;;
18320;SDS011;54904;54.350;18.664;2022-12-16T08:40:41;76.57;;;26.23;;
18320;SDS011;54904;54.350;18.664;2022-12-16T08:43:26;63.27;;;23.97;;
18320;SDS011;54904;54.350;18.664;2022-12-16T08:46:13;56.63;;;21.57;;
18320;SDS011;54904;54.350;18.664;2022-12-16T08:48:59;57.20;;;21.23;;
18320;SDS011;54904;54.350;18.664;2022-12-16T08:51:43;83.43;;;29.10;;
18320;SDS011;54904;54.350;18.664;2022-12-16T08:54:28;58.53;;;22.73;;
18320;SDS011;54904;54.350;18.664;2022-12-16T08:57:13;60.47;;;22.60;;
18320;SDS011;54904;54.350;18.664;2022-12-16T08:59:57;49.43;;;19.73;;
18320;SDS011;54904;54.350;18.664;2022-12-16T09:02:42;76.30;;;26.47;;
18320;SDS011;54904;54.350;18.664;2022-12-16T09:05:28;62.83;;;23.80;;
18320;SDS011;54904;54.350;18.664;2022-12-16T09:08:12;63.73;;;24.73;;
18320;SDS011;54904;54.350;18.664;2022-12-16T09:10:59;85.23;;;29.57;;
18320;SDS011;54904;54.350;18.664;2022-12-16T09:13:45;80.87;;;27.20;;
18320;SDS011;54904;54.350;18.664;2022-12-16T09:16:29;69.93;;;25.63;;
18320;SDS011;54904;54.350;18.664;2022-12-16T09:19:13;61.30;;;21.97;;
18320;SDS011;54904;54.350;18.664;2022-12-16T09:21:59;60.43;;;22.83;;
18320;SDS011;54904;54.350;18.664;2022-12-16T09:24:44;68.37;;;24.13;;
18320;SDS011;54904;54.350;18.664;2022-12-16T09:27:29;71.37;;;25.87;;
18320;SDS011;54904;54.350;18.664;2022-12-16T09:30:13;82.37;;;28.73;;
18320;SDS011;54904;54.350;18.664;2022-12-16T09:33:00;92.40;;;31.60;;
18320;SDS011;54904;54.350;18.664;2022-12-16T09:35:44;80.07;;;28.43;;
18320;SDS011;54904;54.350;18.664;2022-12-16T09:38:30;89.43;;;31.33;;
18320;SDS011;54904;54.350;18.664;2022-12-16T09:41:29;82.93;;;30.53;;
18320;SDS011;54904;54.350;18.664;2022-12-16T09:44:32;84.63;;;30.30;;
18320;SDS011;54904;54.350;18.664;2022-12-16T09:47:29;66.20;;;24.20;;
18320;SDS011;54904;54.350;18.664;2022-12-16T09:50:24;67.37;;;23.43;;
18320;SDS011;54904;54.350;18.664;2022-12-16T09:53:09;58.00;;;20.27;;
18320;SDS011;54904;54.350;18.664;2022-12-16T09:55:58;89.57;;;30.77;;
18320;SDS011;54904;54.350;18.664;2022-12-16T09:58:46;97.33;;;34.53;;
18320;SDS011;54904;54.350;18.664;2022-12-16T10:01:35;96.90;;;33.60;;
18320;SDS011;54904;54.350;18.664;2022-12-16T10:04:27;90.93;;;32.47;;
18320;SDS011;54904;54.350;18.664;2022-12-16T10:07:13;94.07;;;35.27;;
18320;SDS011;54904;54.350;18.664;2022-12-16T10:10:02;84.67;;;29.60;;
18320;SDS011;54904;54.350;18.664;2022-12-16T10:13:02;73.93;;;26.33;;
18320;SDS011;54904;54.350;18.664;2022-12-16T10:15:57;65.07;;;23.70;;
18320;SDS011;54904;54.350;18.664;2022-12-16T10:18:53;90.23;;;30.50;;
18320;SDS011;54904;54.350;18.664;2022-12-16T10:21:44;65.97;;;25.00;;
18320;SDS011;54904;54.350;18.664;2022-12-16T10:24:37;82.70;;;30.53;;
18320;SDS011;54904;54.350;18.664;2022-12-16T10:27:36;70.20;;;26.20;;
18320;SDS011;54904;54.350;18.664;2022-12-16T10:30:30;58.67;;;21.67;;
18320;SDS011;54904;54.350;18.664;2022-12-16T10:33:16;53.50;;;20.90;;
18320;SDS011;54904;54.350;18.664;2022-12-16T10:36:03;68.17;;;23.83;;
18320;SDS011;54904;54.350;18.664;2022-12-16T10:38:54;80.57;;;28.20;;
18320;SDS011;54904;54.350;18.664;2022-12-16T10:41:43;93.07;;;32.47;;
18320;SDS011;54904;54.350;18.664;2022-12-16T10:44:30;86.70;;;31.50;;
18320;SDS011;54904;54.350;18.664;2022-12-16T10:47:20;79.47;;;29.67;;
18320;SDS011;54904;54.350;18.664;2022-12-16T10:50:05;70.53;;;26.70;;
18320;SDS011;54904;54.350;18.664;2022-12-16T10:52:55;66.57;;;25.27;;
18320;SDS011;54904;54.350;18.664;2022-12-16T10:55:51;57.83;;;22.93;;
18320;SDS011;54904;54.350;18.664;2022-12-16T10:58:44;80.37;;;28.93;;
18320;SDS011;54904;54.350;18.664;2022-12-16T11:01:33;88.27;;;31.93;;
18320;SDS011;54904;54.350;18.664;2022-12-16T11:04:32;82.60;;;29.50;;
18320;SDS011;54904;54.350;18.664;2022-12-16T11:07:29;76.77;;;28.23;;
18320;SDS011;54904;54.350;18.664;2022-12-16T11:13:27;43.70;;;18.23;;
18320;SDS011;54904;54.350;18.664;2022-12-16T11:16:14;77.63;;;27.70;;
18320;SDS011;54904;54.350;18.664;2022-12-16T11:19:00;80.17;;;29.17;;
18320;SDS011;54904;54.350;18.664;2022-12-16T11:21:46;60.83;;;23.60;;
18320;SDS011;54904;54.350;18.664;2022-12-16T11:24:31;55.47;;;22.23;;
18320;SDS011;54904;54.350;18.664;2022-12-16T11:27:21;67.47;;;25.87;;
18320;SDS011;54904;54.350;18.664;2022-12-16T11:30:19;84.07;;;30.30;;
18320;SDS011;54904;54.350;18.664;2022-12-16T11:33:10;84.67;;;32.53;;
18320;SDS011;54904;54.350;18.664;2022-12-16T11:36:03;63.90;;;25.67;;
18320;SDS011;54904;54.350;18.664;2022-12-16T11:38:58;60.80;;;24.37;;
18320;SDS011;54904;54.350;18.664;2022-12-16T11:41:46;53.23;;;20.57;;
18320;SDS011;54904;54.350;18.664;2022-12-16T11:44:46;50.80;;;20.30;;
18320;SDS011;54904;54.350;18.664;2022-12-16T11:47:36;45.87;;;19.23;;
18320;SDS011;54904;54.350;18.664;2022-12-16T11:50:24;43.77;;;18.07;;
18320;SDS011;54904;54.350;18.664;2022-12-16T11:53:24;43.20;;;16.63;;
18320;SDS011;54904;54.350;18.664;2022-12-16T11:56:21;49.93;;;20.43;;
18320;SDS011;54904;54.350;18.664;2022-12-16T11:59:15;41.93;;;17.17;;
18320;SDS011;54904;54.350;18.664;2022-12-16T12:02:07;37.77;;;16.10;;
18320;SDS011;54904;54.350;18.664;2022-12-16T12:04:57;50.67;;;20.37;;
18320;SDS011;54904;54.350;18.664;2022-12-16T12:07:42;42.27;;;17.27;;
18320;SDS011;54904;54.350;18.664;2022-12-16T12:13:51;39.63;;;16.10;;
18320;SDS011;54904;54.350;18.664;2022-12-16T12:16:51;38.37;;;16.27;;
18320;SDS011;54904;54.350;18.664;2022-12-16T12:19:47;39.43;;;16.33;;
18320;SDS011;54904;54.350;18.664;2022-12-16T12:22:43;41.80;;;16.80;;
18320;SDS011;54904;54.350;18.664;2022-12-16T12:25:45;41.60;;;17.90;;
18320;SDS011;54904;54.350;18.664;2022-12-16T12:28:39;41.13;;;16.23;;
18320;SDS011;54904;54.350;18.664;2022-12-16T12:31:36;37.70;;;15.43;;
18320;SDS011;54904;54.350;18.664;2022-12-16T12:34:31;37.30;;;15.93;;
18320;SDS011;54904;54.350;18.664;2022-12-16T12:37:25;35.47;;;15.20;;
18320;SDS011;54904;54.350;18.664;2022-12-16T12:40:26;47.90;;;19.77;;
18320;SDS011;54904;54.350;18.664;2022-12-16T12:43:26;35.67;;;16.13;;
18320;SDS011;54904;54.350;18.664;2022-12-16T12:46:21;34.83;;;14.20;;
18320;SDS011;54904;54.350;18.664;2022-12-16T12:49:15;27.80;;;12.63;;
18320;SDS011;54904;54.350;18.664;2022-12-16T12:52:07;27.03;;;12.70;;
18320;SDS011;54904;54.350;18.664;2022-12-16T12:55:06;25.97;;;11.80;;
18320;SDS011;54904;54.350;18.664;2022-12-16T12:57:58;31.80;;;13.93;;
18320;SDS011;54904;54.350;18.664;2022-12-16T13:00:46;42.10;;;17.40;;
18320;SDS011;54904;54.350;18.664;2022-12-16T13:03:34;35.97;;;15.37;;
18320;SDS011;54904;54.350;18.664;2022-12-16T13:06:23;33.50;;;14.43;;
18320;SDS011;54904;54.350;18.664;2022-12-16T13:09:21;60.37;;;23.57;;
18320;SDS011;54904;54.350;18.664;2022-12-16T13:12:19;62.23;;;24.80;;
18320;SDS011;54904;54.350;18.664;2022-12-16T13:15:06;48.60;;;19.83;;
18320;SDS011;54904;54.350;18.664;2022-12-16T13:20:56;35.77;;;15.37;;
18320;SDS011;54904;54.350;18.664;2022-12-16T13:23:43;30.37;;;13.83;;
18320;SDS011;54904;54.350;18.664;2022-12-16T13:26:32;35.33;;;15.20;;
18320;SDS011;54904;54.350;18.664;2022-12-16T13:29:18;42.03;;;17.43;;
18320;SDS011;54904;54.350;18.664;2022-12-16T13:32:13;38.87;;;16.90;;
18320;SDS011;54904;54.350;18.664;2022-12-16T13:35:01;33.63;;;15.43;;
18320;SDS011;54904;54.350;18.664;2022-12-16T13:37:51;32.47;;;14.07;;
18320;SDS011;54904;54.350;18.664;2022-12-16T13:40:48;30.23;;;13.20;;
18320;SDS011;54904;54.350;18.664;2022-12-16T13:46:40;46.63;;;17.93;;
18320;SDS011;54904;54.350;18.664;2022-12-16T13:49:45;46.70;;;19.17;;
18320;SDS011;54904;54.350;18.664;2022-12-16T13:52:41;35.63;;;15.17;;
18320;SDS011;54904;54.350;18.664;2022-12-16T13:55:40;38.67;;;16.77;;
18320;SDS011;54904;54.350;18.664;2022-12-16T13:58:34;37.27;;;15.00;;
18320;SDS011;54904;54.350;18.664;2022-12-16T14:01:21;32.10;;;14.77;;
18320;SDS011;54904;54.350;18.664;2022-12-16T14:04:12;35.97;;;15.47;;
18320;SDS011;54904;54.350;18.664;2022-12-16T14:07:04;36.27;;;15.63;;
18320;SDS011;54904;54.350;18.664;2022-12-16T14:09:52;33.13;;;14.23;;
18320;SDS011;54904;54.350;18.664;2022-12-16T14:12:44;30.47;;;13.77;;
18320;SDS011;54904;54.350;18.664;2022-12-16T14:15:38;28.20;;;13.03;;
18320;SDS011;54904;54.350;18.664;2022-12-16T14:18:34;27.13;;;12.40;;
18320;SDS011;54904;54.350;18.664;2022-12-16T14:21:25;27.23;;;12.53;;
18320;SDS011;54904;54.350;18.664;2022-12-16T14:24:17;28.63;;;13.03;;
18320;SDS011;54904;54.350;18.664;2022-12-16T14:27:10;36.73;;;15.47;;
18320;SDS011;54904;54.350;18.664;2022-12-16T14:29:56;26.97;;;12.50;;
18320;SDS011;54904;54.350;18.664;2022-12-16T14:32:44;42.00;;;18.37;;
18320;SDS011;54904;54.350;18.664;2022-12-16T14:35:29;40.33;;;17.47;;
18320;SDS011;54904;54.350;18.664;2022-12-16T14:38:19;37.40;;;17.23;;
18320;SDS011;54904;54.350;18.664;2022-12-16T14:41:06;35.07;;;15.83;;
18320;SDS011;54904;54.350;18.664;2022-12-16T14:43:56;38.57;;;15.60;;
18320;SDS011;54904;54.350;18.664;2022-12-16T14:46:41;26.67;;;12.70;;
18320;SDS011;54904;54.350;18.664;2022-12-16T14:49:35;35.33;;;13.90;;
18320;SDS011;54904;54.350;18.664;2022-12-16T14:52:20;34.00;;;13.93;;
18320;SDS011;54904;54.350;18.664;2022-12-16T14:55:09;39.53;;;15.53;;
18320;SDS011;54904;54.350;18.664;2022-12-16T14:58:03;37.40;;;15.53;;
18320;SDS011;54904;54.350;18.664;2022-12-16T15:00:51;31.20;;;13.80;;
18320;SDS011;54904;54.350;18.664;2022-12-16T15:03:37;34.90;;;15.30;;
18320;SDS011;54904;54.350;18.664;2022-12-16T15:06:26;36.53;;;15.93;;
18320;SDS011;54904;54.350;18.664;2022-12-16T15:09:16;40.80;;;17.17;;
18320;SDS011;54904;54.350;18.664;2022-12-16T15:12:06;43.10;;;17.77;;
18320;SDS011;54904;54.350;18.664;2022-12-16T15:14:58;43.40;;;16.30;;
18320;SDS011;54904;54.350;18.664;2022-12-16T15:17:48;33.27;;;14.03;;
18320;SDS011;54904;54.350;18.664;2022-12-16T15:20:35;41.10;;;17.37;;
18320;SDS011;54904;54.350;18.664;2022-12-16T15:23:25;39.43;;;16.03;;
18320;SDS011;54904;54.350;18.664;2022-12-16T15:26:15;36.93;;;16.23;;
18320;SDS011;54904;54.350;18.664;2022-12-16T15:29:00;38.90;;;15.67;;
18320;SDS011;54904;54.350;18.664;2022-12-16T15:31:47;34.63;;;15.50;;
18320;SDS011;54904;54.350;18.664;2022-12-16T15:34:35;32.87;;;14.40;;
18320;SDS011;54904;54.350;18.664;2022-12-16T15:37:29;33.97;;;14.47;;
18320;SDS011;54904;54.350;18.664;2022-12-16T15:40:23;35.30;;;15.03;;
18320;SDS011;54904;54.350;18.664;2022-12-16T15:43:26;29.40;;;12.50;;
18320;SDS011;54904;54.350;18.664;2022-12-16T15:46:15;32.37;;;13.33;;
18320;SDS011;54904;54.350;18.664;2022-12-16T15:49:04;34.00;;;13.47;;
18320;SDS011;54904;54.350;18.664;2022-12-16T15:51:57;33.73;;;13.80;;
18320;SDS011;54904;54.350;18.664;2022-12-16T15:54:49;33.53;;;14.03;;